createdAt,value
2022-11-25T00:00:37.815Z,100315.54
2022-11-25T00:03:26.243Z,100319.34
2022-11-25T00:05:58.601Z,100322.98
2022-11-25T00:08:31.055Z,100324.44
2022-11-25T00:11:05.670Z,100324.23
2022-11-25T00:13:38.167Z,100320.05
2022-11-25T00:16:13.518Z,100320.39
2022-11-25T00:18:49.749Z,100319.00
2022-11-25T00:21:23.771Z,100324.35
2022-11-25T00:23:57.555Z,100324.02
2022-11-25T00:26:32.679Z,100320.79
2022-11-25T00:29:08.700Z,100324.31
2022-11-25T00:31:42.502Z,100325.09
2022-11-25T00:34:16.946Z,100324.79
2022-11-25T00:36:49.575Z,100325.89
2022-11-25T00:39:24.880Z,100321.91
2022-11-25T00:42:14.726Z,100323.13
2022-11-25T00:44:47.334Z,100329.08
2022-11-25T00:47:21.818Z,100329.17
2022-11-25T00:49:56.032Z,100333.34
2022-11-25T00:52:29.149Z,100335.86
2022-11-25T00:55:01.801Z,100337.62
2022-11-25T00:57:34.551Z,100341.77
2022-11-25T01:00:10.143Z,100346.45
2022-11-25T01:02:43.293Z,100345.54
2022-11-25T01:05:15.931Z,100346.21
2022-11-25T01:07:48.475Z,100349.48
2022-11-25T01:10:22.563Z,100350.50
2022-11-25T01:12:57.735Z,100351.19
2022-11-25T01:15:31.277Z,100351.88
2022-11-25T01:18:03.787Z,100354.95
2022-11-25T01:20:36.077Z,100356.48
2022-11-25T01:23:09.155Z,100351.97
2022-11-25T01:25:42.114Z,100349.95
2022-11-25T01:28:14.984Z,100347.54
2022-11-25T01:30:47.297Z,100352.08
2022-11-25T01:33:19.786Z,100350.59
2022-11-25T01:35:52.299Z,100352.19
2022-11-25T01:38:25.152Z,100353.14
2022-11-25T01:40:57.899Z,100356.90
2022-11-25T01:43:31.519Z,100356.20
2022-11-25T01:46:11.011Z,100357.61
2022-11-25T01:48:49.324Z,100357.47
2022-11-25T01:51:28.262Z,100357.70
2022-11-25T01:54:05.147Z,100360.22
2022-11-25T01:56:43.948Z,100366.39
2022-11-25T01:59:17.019Z,100369.95
2022-11-25T02:01:50.407Z,100372.13
2022-11-25T02:04:25.415Z,100378.94
2022-11-25T02:07:02.850Z,100383.23
2022-11-25T02:09:36.275Z,100390.04
2022-11-25T02:12:10.487Z,100395.27
2022-11-25T02:14:44.140Z,100397.20
2022-11-25T02:17:16.746Z,100399.55
2022-11-25T02:20:00.181Z,100396.08
2022-11-25T02:22:46.894Z,100403.35
2022-11-25T02:25:23.990Z,100410.42
2022-11-25T02:28:01.983Z,100411.83
2022-11-25T02:30:34.911Z,100417.25
2022-11-25T02:33:07.736Z,100417.92
2022-11-25T02:35:42.096Z,100423.95
2022-11-25T02:38:17.615Z,100423.43
2022-11-25T02:40:55.658Z,100428.59
2022-11-25T02:43:28.432Z,100430.22
2022-11-25T02:46:04.781Z,100429.71
2022-11-25T02:49:07.293Z,100431.93
2022-11-25T02:51:33.791Z,100435.11
2022-11-25T02:54:07.175Z,100435.60
2022-11-25T02:56:41.392Z,100433.58
2022-11-25T02:59:13.860Z,100440.48
2022-11-25T03:01:47.317Z,100443.16
2022-11-25T03:04:20.376Z,100441.11
2022-11-25T03:06:53.081Z,100442.00
2022-11-25T03:09:25.395Z,100442.24
2022-11-25T03:12:14.944Z,100442.86
2022-11-25T03:14:47.887Z,100447.54
2022-11-25T03:17:20.529Z,100449.73
2022-11-25T03:19:55.430Z,100456.27
2022-11-25T03:22:29.481Z,100458.27
2022-11-25T03:25:03.459Z,100462.54
2022-11-25T03:27:38.030Z,100466.06
2022-11-25T03:30:15.495Z,100468.17
2022-11-25T03:32:49.514Z,100472.14
2022-11-25T03:35:22.426Z,100470.79
2022-11-25T03:37:55.131Z,100471.14
2022-11-25T03:40:27.612Z,100471.30
2022-11-25T03:43:00.726Z,100470.45
2022-11-25T03:45:33.358Z,100475.55
2022-11-25T03:48:06.433Z,100477.58
2022-11-25T03:50:38.834Z,100476.98
2022-11-25T03:53:11.524Z,100483.27
2022-11-25T03:55:44.347Z,100484.89
2022-11-25T03:58:16.907Z,100481.70
2022-11-25T04:00:49.727Z,100485.98
2022-11-25T04:03:22.062Z,100492.45
2022-11-25T04:05:54.482Z,100495.17
2022-11-25T04:08:27.640Z,100498.70
2022-11-25T04:10:59.977Z,100501.31
2022-11-25T04:13:32.350Z,100505.58
2022-11-25T04:16:04.816Z,100510.94
2022-11-25T04:18:37.378Z,100515.02
2022-11-25T04:21:10.804Z,100516.41
2022-11-25T04:23:43.674Z,100518.36
2022-11-25T04:26:16.040Z,100521.38
2022-11-25T04:28:48.419Z,100519.12
2022-11-25T04:31:21.288Z,100523.05
2022-11-25T04:33:53.886Z,100522.17
2022-11-25T04:36:26.912Z,100526.38
2022-11-25T04:38:59.379Z,100525.48
2022-11-25T04:41:34.224Z,100530.59
2022-11-25T04:44:07.882Z,100530.36
2022-11-25T04:46:44.570Z,100532.88
2022-11-25T04:49:17.997Z,100532.21
2022-11-25T04:51:51.235Z,100535.98
2022-11-25T04:54:23.631Z,100536.06
2022-11-25T04:56:56.434Z,100537.70
2022-11-25T04:59:40.844Z,100539.16
2022-11-25T05:02:18.595Z,100542.29
2022-11-25T05:04:53.473Z,100542.90
2022-11-25T05:07:28.988Z,100551.58
2022-11-25T05:10:00.135Z,100558.33
2022-11-25T05:12:33.031Z,100565.52
2022-11-25T05:15:06.176Z,100566.08
2022-11-25T05:17:39.177Z,100572.60
2022-11-25T05:20:14.933Z,100580.34
2022-11-25T05:22:47.633Z,100582.95
2022-11-25T05:25:21.060Z,100587.80
2022-11-25T05:27:53.583Z,100588.42
2022-11-25T05:30:27.472Z,100588.28
2022-11-25T05:33:01.788Z,100585.98
2022-11-25T05:35:34.211Z,100591.19
2022-11-25T05:38:06.878Z,100594.11
2022-11-25T05:40:39.710Z,100603.02
2022-11-25T05:43:12.157Z,100608.15
2022-11-25T05:45:44.630Z,100612.02
2022-11-25T05:48:17.299Z,100613.88
2022-11-25T05:50:49.618Z,100618.83
2022-11-25T05:53:21.964Z,100626.76
2022-11-25T05:56:00.679Z,100631.86
2022-11-25T05:58:34.447Z,100632.35
2022-11-25T06:01:10.953Z,100638.75
2022-11-25T06:03:44.572Z,100647.85
2022-11-25T06:06:19.948Z,100653.11
2022-11-25T06:08:52.599Z,100653.35
2022-11-25T06:11:25.593Z,100651.56
2022-11-25T06:14:00.041Z,100656.78
2022-11-25T06:16:32.435Z,100661.61
2022-11-25T06:19:07.122Z,100661.28
2022-11-25T06:21:39.556Z,100664.84
2022-11-25T06:24:12.058Z,100668.23
2022-11-25T06:26:44.372Z,100674.45
2022-11-25T06:29:17.058Z,100673.39
2022-11-25T06:31:50.192Z,100675.23
2022-11-25T06:34:22.456Z,100679.63
2022-11-25T06:36:54.803Z,100681.66
2022-11-25T06:39:27.563Z,100684.14
2022-11-25T06:41:59.846Z,100691.36
2022-11-25T06:44:32.201Z,100695.61
2022-11-25T06:47:04.822Z,100694.65
2022-11-25T06:49:37.273Z,100695.71
2022-11-25T06:52:09.958Z,100701.24
2022-11-25T06:54:43.055Z,100707.42
2022-11-25T06:57:18.259Z,100707.87
2022-11-25T06:59:51.450Z,100710.81
2022-11-25T07:02:24.014Z,100711.85
2022-11-25T07:04:56.391Z,100713.27
2022-11-25T07:07:28.716Z,100709.70
2022-11-25T07:10:01.203Z,100711.32
2022-11-25T07:12:34.947Z,100713.10
2022-11-25T07:15:09.135Z,100717.09
2022-11-25T07:17:41.468Z,100722.95
2022-11-25T07:20:14.821Z,100722.31
2022-11-25T07:22:47.372Z,100725.09
2022-11-25T07:25:19.789Z,100723.23
2022-11-25T07:27:52.210Z,100727.02
2022-11-25T07:33:16.923Z,100732.58
2022-11-25T07:35:49.602Z,100737.58
2022-11-25T07:38:21.878Z,100742.45
2022-11-25T07:40:54.188Z,100746.52
2022-11-25T07:43:26.458Z,100747.90
2022-11-25T07:45:58.841Z,100748.90
2022-11-25T07:48:31.983Z,100752.76
2022-11-25T07:51:04.298Z,100762.76
2022-11-25T07:53:36.800Z,100769.90
2022-11-25T07:56:11.852Z,100765.27
2022-11-25T07:58:46.180Z,100766.90
2022-11-25T08:01:20.181Z,100772.86
2022-11-25T08:03:54.476Z,100773.55
2022-11-25T08:06:28.518Z,100778.88
2022-11-25T08:09:01.444Z,100778.77
2022-11-25T08:11:34.407Z,100777.98
2022-11-25T08:14:07.350Z,100782.23
2022-11-25T08:16:40.586Z,100785.96
2022-11-25T08:19:17.950Z,100792.53
2022-11-25T08:21:50.391Z,100795.80
2022-11-25T08:24:23.614Z,100798.25
2022-11-25T08:26:58.885Z,100795.87
2022-11-25T08:29:31.213Z,100804.58
2022-11-25T08:32:07.438Z,100808.59
2022-11-25T08:34:43.821Z,100805.44
2022-11-25T08:37:16.152Z,100812.81
2022-11-25T08:39:53.159Z,100814.69
2022-11-25T08:42:27.177Z,100817.45
2022-11-25T08:44:59.980Z,100815.39
2022-11-25T08:47:32.566Z,100820.96
2022-11-25T08:50:06.485Z,100820.24
2022-11-25T08:52:38.770Z,100830.88
2022-11-25T08:55:12.423Z,100833.55
2022-11-25T08:57:44.731Z,100831.43
2022-11-25T09:00:18.983Z,100828.91
2022-11-25T09:02:51.512Z,100832.33
2022-11-25T09:05:24.177Z,100834.65
2022-11-25T09:07:56.602Z,100829.86
2022-11-25T09:10:29.060Z,100826.73
2022-11-25T09:13:02.037Z,100825.95
2022-11-25T09:15:37.783Z,100827.86
2022-11-25T09:18:09.938Z,100831.06
2022-11-25T09:20:43.691Z,100830.92
2022-11-25T09:23:16.448Z,100830.98
2022-11-25T09:25:55.882Z,100834.92
2022-11-25T09:28:28.825Z,100839.86
2022-11-25T09:31:01.216Z,100836.57
2022-11-25T09:33:33.548Z,100839.83
2022-11-25T09:36:06.295Z,100839.59
2022-11-25T09:38:42.976Z,100838.50
2022-11-25T09:41:47.621Z,100837.91
2022-11-25T09:44:53.013Z,100838.86
2022-11-25T09:47:35.011Z,100836.71
2022-11-25T09:50:21.999Z,100827.63
2022-11-25T09:53:04.972Z,100828.41
2022-11-25T09:55:43.900Z,100826.46
2022-11-25T09:58:27.514Z,100826.17
2022-11-25T10:01:01.628Z,100825.07
2022-11-25T10:03:40.747Z,100828.25
2022-11-25T10:06:21.478Z,100822.48
2022-11-25T10:08:56.859Z,100823.89
2022-11-25T10:11:44.199Z,100821.73
2022-11-25T10:14:26.912Z,100823.98
2022-11-25T10:17:06.883Z,100824.96
2022-11-25T10:19:58.370Z,100822.50
2022-11-25T10:22:35.450Z,100826.21
2022-11-25T10:25:17.064Z,100823.33
2022-11-25T10:27:56.143Z,100815.73
2022-11-25T10:30:34.271Z,100816.32
2022-11-25T10:33:15.455Z,100817.06
2022-11-25T10:35:51.811Z,100813.77
2022-11-25T10:38:29.756Z,100813.40
2022-11-25T10:41:04.327Z,100812.48
2022-11-25T10:43:41.053Z,100813.33
2022-11-25T10:46:25.190Z,100810.98
2022-11-25T10:49:09.267Z,100817.31
2022-11-25T10:51:48.341Z,100814.27
2022-11-25T10:54:39.136Z,100819.30
2022-11-25T10:57:21.754Z,100817.00
2022-11-25T11:00:00.604Z,100816.29
2022-11-25T11:02:39.559Z,100820.48
2022-11-25T11:05:24.674Z,100815.88
2022-11-25T11:11:26.925Z,100816.35
2022-11-25T11:14:15.366Z,100813.41
2022-11-25T11:16:55.662Z,100808.29
2022-11-25T11:19:30.228Z,100812.20
2022-11-25T11:22:18.763Z,100808.99
2022-11-25T11:25:06.068Z,100810.42
2022-11-25T11:27:41.135Z,100812.35
2022-11-25T11:30:20.459Z,100809.80
2022-11-25T11:33:02.342Z,100809.73
2022-11-25T11:35:55.282Z,100809.63
2022-11-25T11:38:36.474Z,100807.46
2022-11-25T11:41:22.048Z,100806.00
2022-11-25T11:44:06.223Z,100808.03
2022-11-25T11:46:52.081Z,100803.84
2022-11-25T11:49:40.919Z,100809.48
2022-11-25T11:52:27.275Z,100804.73
2022-11-25T11:55:04.291Z,100808.05
2022-11-25T11:57:48.382Z,100808.89
2022-11-25T12:00:23.865Z,100808.73
2022-11-25T12:03:06.791Z,100810.86
2022-11-25T12:05:40.145Z,100812.60
2022-11-25T12:08:19.870Z,100813.95
2022-11-25T12:10:56.048Z,100817.90
2022-11-25T12:13:36.828Z,100818.39
2022-11-25T12:16:13.411Z,100822.94
2022-11-25T12:18:50.908Z,100821.66
2022-11-25T12:21:45.388Z,100821.56
2022-11-25T12:24:25.667Z,100821.90
2022-11-25T12:27:03.774Z,100824.12
2022-11-25T12:29:41.198Z,100824.28
2022-11-25T12:32:41.761Z,100822.75
2022-11-25T12:35:23.711Z,100823.77
2022-11-25T12:38:05.203Z,100826.58
2022-11-25T12:40:45.480Z,100827.91
2022-11-25T12:43:30.259Z,100827.61
2022-11-25T12:46:15.173Z,100825.35
2022-11-25T12:48:47.719Z,100822.22
2022-11-25T12:51:44.250Z,100827.54
2022-11-25T12:54:28.879Z,100833.83
2022-11-25T12:57:48.652Z,100830.91
2022-11-25T13:00:42.451Z,100831.77
2022-11-25T13:03:36.304Z,100831.17
2022-11-25T13:06:29.113Z,100834.59
2022-11-25T13:09:11.206Z,100836.19
2022-11-25T13:12:14.296Z,100835.01
2022-11-25T13:15:19.749Z,100831.19
2022-11-25T13:17:55.818Z,100835.39
2022-11-25T13:20:49.775Z,100833.56
2022-11-25T13:23:45.961Z,100837.88
2022-11-25T13:27:01.977Z,100837.42
2022-11-25T13:30:03.879Z,100840.25
2022-11-25T13:32:39.202Z,100842.73
2022-11-25T13:35:38.874Z,100843.48
2022-11-25T13:38:48.210Z,100843.34
2022-11-25T13:41:35.582Z,100837.88
2022-11-25T13:44:20.407Z,100839.80
2022-11-25T13:46:54.558Z,100844.60
2022-11-25T13:49:31.519Z,100845.23
2022-11-25T13:52:23.262Z,100848.05
2022-11-25T13:54:57.753Z,100851.56
2022-11-25T13:57:32.249Z,100853.18
2022-11-25T14:00:09.240Z,100856.20
2022-11-25T14:02:46.652Z,100857.52
2022-11-25T14:06:05.292Z,100858.09
2022-11-25T14:08:45.229Z,100866.21
2022-11-25T14:11:42.029Z,100867.02
2022-11-25T14:14:22.599Z,100867.59
2022-11-25T14:17:15.756Z,100873.85
2022-11-25T14:20:06.166Z,100874.71
2022-11-25T14:22:57.667Z,100877.41
2022-11-25T14:25:33.517Z,100877.12
2022-11-25T14:28:09.822Z,100878.28
2022-11-25T14:30:53.179Z,100876.13
2022-11-25T14:33:34.443Z,100875.80
2022-11-25T14:36:12.965Z,100878.83
2022-11-25T14:38:51.231Z,100881.48
2022-11-25T14:41:29.532Z,100883.02
2022-11-25T14:44:07.494Z,100882.11
2022-11-25T14:46:53.964Z,100885.02
2022-11-25T14:49:49.123Z,100891.20
2022-11-25T14:52:30.722Z,100892.92
2022-11-25T14:55:07.837Z,100894.52
2022-11-25T14:57:45.195Z,100894.95
2022-11-25T15:00:20.415Z,100897.62
2022-11-25T15:03:03.875Z,100895.91
2022-11-25T15:05:38.678Z,100895.85
2022-11-25T15:08:16.082Z,100896.83
2022-11-25T15:10:54.616Z,100893.66
2022-11-25T15:13:34.655Z,100898.27
2022-11-25T15:16:13.733Z,100899.17
2022-11-25T15:18:51.719Z,100896.73
2022-11-25T15:21:28.902Z,100899.45
2022-11-25T15:24:04.839Z,100902.58
2022-11-25T15:26:36.506Z,100905.04
2022-11-25T15:29:14.733Z,100905.23
2022-11-25T15:31:51.739Z,100907.69
2022-11-25T15:34:25.707Z,100906.62
2022-11-25T15:37:02.383Z,100910.16
2022-11-25T15:39:35.133Z,100912.38
2022-11-25T15:42:19.734Z,100913.52
2022-11-25T15:44:56.036Z,100916.69
2022-11-25T15:47:30.510Z,100914.36
2022-11-25T15:50:05.727Z,100914.58
2022-11-25T15:52:41.148Z,100918.35
2022-11-25T15:55:28.593Z,100919.70
2022-11-25T15:58:08.423Z,100917.55
2022-11-25T16:00:41.975Z,100920.80
2022-11-25T16:03:24.301Z,100923.14
2022-11-25T16:05:57.811Z,100929.36
2022-11-25T16:08:35.186Z,100932.06
2022-11-25T16:11:20.546Z,100935.61
2022-11-25T16:13:54.039Z,100934.80
2022-11-25T16:16:31.246Z,100930.58
2022-11-25T16:19:19.567Z,100937.96
2022-11-25T16:21:57.958Z,100941.77
2022-11-25T16:24:40.787Z,100945.55
2022-11-25T16:27:22.382Z,100943.94
2022-11-25T16:29:57.869Z,100940.50
2022-11-25T16:32:31.965Z,100942.46
2022-11-25T16:35:16.047Z,100946.02
2022-11-25T16:37:49.688Z,100949.90
2022-11-25T16:40:22.744Z,100951.30
2022-11-25T16:42:55.095Z,100957.23
2022-11-25T16:45:29.193Z,100960.89
2022-11-25T16:48:01.506Z,100965.26
2022-11-25T16:50:33.998Z,100970.36
2022-11-25T16:53:06.361Z,100973.46
2022-11-25T16:55:41.494Z,100979.67
2022-11-25T16:58:20.932Z,100976.38
2022-11-25T17:00:56.511Z,100980.17
2022-11-25T17:03:28.921Z,100980.80
2022-11-25T17:06:01.150Z,100981.12
2022-11-25T17:08:33.557Z,100984.90
2022-11-25T17:11:06.044Z,100982.23
2022-11-25T17:13:43.742Z,100981.71
2022-11-25T17:16:21.202Z,100980.25
2022-11-25T17:18:56.058Z,100979.64
2022-11-25T17:21:29.047Z,100978.17
2022-11-25T17:24:07.735Z,100976.73
2022-11-25T17:26:43.347Z,100974.90
2022-11-25T17:29:20.140Z,100977.11
2022-11-25T17:31:57.980Z,100975.48
2022-11-25T17:34:34.890Z,100973.35
2022-11-25T17:37:16.732Z,100973.41
2022-11-25T17:39:49.211Z,100978.31
2022-11-25T17:42:24.652Z,100982.65
2022-11-25T17:44:57.510Z,100988.04
2022-11-25T17:47:29.874Z,100988.85
2022-11-25T17:50:02.362Z,100991.80
2022-11-25T17:52:34.743Z,100999.77
2022-11-25T17:55:08.248Z,100999.64
2022-11-25T17:57:41.427Z,100999.63
2022-11-25T18:00:18.764Z,101000.17
2022-11-25T18:02:51.905Z,101000.95
2022-11-25T18:05:26.859Z,101005.50
2022-11-25T18:07:59.240Z,101008.79
2022-11-25T18:10:31.796Z,101008.38
2022-11-25T18:13:04.651Z,101012.55
2022-11-25T18:15:37.048Z,101015.69
2022-11-25T18:18:20.191Z,101019.40
2022-11-25T18:20:52.790Z,101024.60
2022-11-25T18:23:25.347Z,101029.98
2022-11-25T18:26:01.634Z,101035.89
2022-11-25T18:28:34.942Z,101039.44
2022-11-25T18:31:08.544Z,101040.11
2022-11-25T18:33:40.914Z,101041.01
2022-11-25T18:36:15.811Z,101043.42
2022-11-25T18:38:49.831Z,101048.20
2022-11-25T18:41:24.039Z,101053.92
2022-11-25T18:43:56.452Z,101060.15
2022-11-25T18:46:29.481Z,101063.77
2022-11-25T18:49:01.849Z,101065.27
2022-11-25T18:51:34.403Z,101067.27
2022-11-25T18:54:06.805Z,101068.21
2022-11-25T18:56:41.347Z,101071.05
2022-11-25T18:59:18.898Z,101075.54
2022-11-25T19:01:51.260Z,101075.45
2022-11-25T19:04:23.608Z,101078.95
2022-11-25T19:06:56.038Z,101084.60
2022-11-25T19:09:28.559Z,101086.58
2022-11-25T19:12:01.071Z,101094.25
2022-11-25T19:14:36.767Z,101094.81
2022-11-25T19:17:19.622Z,101098.71
2022-11-25T19:19:52.284Z,101101.98
2022-11-25T19:22:24.952Z,101106.66
2022-11-25T19:24:59.298Z,101103.90
2022-11-25T19:27:33.866Z,101106.58
2022-11-25T19:30:07.786Z,101111.12
2022-11-25T19:32:40.185Z,101114.04
2022-11-25T19:35:16.706Z,101115.50
2022-11-25T19:37:49.028Z,101121.38
2022-11-25T19:40:25.274Z,101118.70
2022-11-25T19:42:57.554Z,101124.10
2022-11-25T19:45:31.216Z,101125.56
2022-11-25T19:48:07.347Z,101128.58
2022-11-25T19:50:41.673Z,101134.15
2022-11-25T19:53:18.272Z,101133.75
2022-11-25T19:55:50.896Z,101134.80
2022-11-25T19:58:24.106Z,101137.61
2022-11-25T20:01:06.435Z,101141.38
2022-11-25T20:03:40.943Z,101142.42
2022-11-25T20:06:18.855Z,101143.25
2022-11-25T20:08:51.241Z,101143.70
2022-11-25T20:11:23.567Z,101146.98
2022-11-25T20:13:55.864Z,101150.76
2022-11-25T20:16:32.749Z,101154.29
2022-11-25T20:19:07.109Z,101156.27
2022-11-25T20:21:41.576Z,101163.75
2022-11-25T20:24:18.126Z,101163.96
2022-11-25T20:26:51.738Z,101169.54
2022-11-25T20:29:30.499Z,101171.16
2022-11-25T20:32:26.499Z,101174.41
2022-11-25T20:34:59.573Z,101175.97
2022-11-25T20:37:40.601Z,101178.59
2022-11-25T20:40:19.923Z,101183.63
2022-11-25T20:42:53.270Z,101183.45
2022-11-25T20:45:25.672Z,101189.45
2022-11-25T20:47:59.296Z,101195.35
2022-11-25T20:50:32.442Z,101195.95
2022-11-25T20:53:06.100Z,101198.56
2022-11-25T20:55:38.409Z,101199.66
2022-11-25T20:58:22.871Z,101202.14
2022-11-25T21:00:57.883Z,101210.36
2022-11-25T21:03:30.690Z,101213.50
2022-11-25T21:06:04.386Z,101213.22
2022-11-25T21:08:36.863Z,101217.48
2022-11-25T21:11:09.353Z,101224.01
2022-11-25T21:13:41.630Z,101223.46
2022-11-25T21:16:14.634Z,101228.07
2022-11-25T21:18:47.470Z,101229.92
2022-11-25T21:21:26.026Z,101237.58
2022-11-25T21:23:59.255Z,101240.73
2022-11-25T21:26:31.535Z,101236.02
2022-11-25T21:29:03.804Z,101233.30
2022-11-25T21:31:36.106Z,101235.82
2022-11-25T21:34:13.909Z,101239.80
2022-11-25T21:36:49.566Z,101242.89
2022-11-25T21:39:30.832Z,101245.17
2022-11-25T21:42:07.522Z,101249.61
2022-11-25T21:44:42.471Z,101254.45
2022-11-25T21:47:18.155Z,101257.00
2022-11-25T21:49:51.154Z,101260.03
2022-11-25T21:52:23.785Z,101259.95
2022-11-25T21:54:56.070Z,101261.02
2022-11-25T21:57:30.883Z,101260.94
2022-11-25T22:00:03.190Z,101258.06
2022-11-25T22:02:35.457Z,101258.80
2022-11-25T22:05:17.104Z,101260.34
2022-11-25T22:07:49.923Z,101259.95
2022-11-25T22:10:23.020Z,101266.02
2022-11-25T22:12:55.415Z,101263.86
2022-11-25T22:15:27.831Z,101263.75
2022-11-25T22:18:01.152Z,101258.91
2022-11-25T22:20:36.108Z,101265.13
2022-11-25T22:23:16.529Z,101267.64
2022-11-25T22:25:49.892Z,101266.45
2022-11-25T22:28:25.718Z,101267.83
2022-11-25T22:30:57.222Z,101272.62
2022-11-25T22:33:32.635Z,101276.04
2022-11-25T22:36:06.273Z,101283.16
2022-11-25T22:38:38.534Z,101292.73
2022-11-25T22:41:13.198Z,101292.23
2022-11-25T22:43:52.817Z,101293.17
2022-11-25T22:46:25.099Z,101293.52
2022-11-25T22:48:57.681Z,101297.58
2022-11-25T22:51:30.478Z,101299.89
2022-11-25T22:54:03.030Z,101304.27
2022-11-25T22:56:35.535Z,101306.16
2022-11-25T22:59:08.089Z,101311.59
2022-11-25T23:01:40.795Z,101314.31
2022-11-25T23:04:19.118Z,101317.98
2022-11-25T23:06:52.661Z,101320.73
2022-11-25T23:09:25.211Z,101323.71
2022-11-25T23:11:57.824Z,101323.40
2022-11-25T23:14:30.344Z,101325.73
2022-11-25T23:17:02.900Z,101328.08
2022-11-25T23:19:35.460Z,101327.27
2022-11-25T23:22:11.205Z,101333.98
2022-11-25T23:24:46.149Z,101334.20
2022-11-25T23:27:19.671Z,101336.95
2022-11-25T23:29:52.164Z,101337.46
2022-11-25T23:32:24.773Z,101338.85
2022-11-25T23:34:57.283Z,101348.45
2022-11-25T23:37:30.501Z,101349.83
2022-11-25T23:40:03.034Z,101358.71
2022-11-25T23:42:35.954Z,101361.72
2022-11-25T23:45:13.976Z,101365.58
2022-11-25T23:47:49.136Z,101371.55
2022-11-25T23:50:28.245Z,101374.42
2022-11-25T23:53:03.419Z,101384.27
2022-11-25T23:55:38.677Z,101385.67
2022-11-25T23:58:17.977Z,101390.73
